createdAt,value
2018-06-12T00:00:58.651Z,10.97
2018-06-12T00:03:29.459Z,11.40
2018-06-12T00:06:00.235Z,10.93
2018-06-12T00:08:32.454Z,11.30
2018-06-12T00:11:03.273Z,11.23
2018-06-12T00:13:34.017Z,10.83
2018-06-12T00:16:04.788Z,10.33
2018-06-12T00:18:35.135Z,10.77
2018-06-12T00:21:06.922Z,11.80
2018-06-12T00:23:38.075Z,11.43
2018-06-12T00:26:08.919Z,11.20
2018-06-12T00:28:39.789Z,10.93
2018-06-12T00:31:11.141Z,11.10
2018-06-12T00:33:42.965Z,10.53
2018-06-12T00:36:13.760Z,11.60
2018-06-12T00:38:44.576Z,10.90
2018-06-12T00:41:17.189Z,10.93
2018-06-12T00:43:50.825Z,10.83
2018-06-12T00:46:21.584Z,10.50
2018-06-12T00:48:52.377Z,10.83
2018-06-12T00:51:23.144Z,11.00
2018-06-12T00:53:53.974Z,11.33
2018-06-12T00:56:41.124Z,10.90
2018-06-12T00:59:11.875Z,11.23
2018-06-12T01:01:43.400Z,10.53
2018-06-12T01:04:14.120Z,11.13
2018-06-12T01:06:44.900Z,11.30
2018-06-12T01:09:15.697Z,11.07
2018-06-12T01:11:46.007Z,11.47
2018-06-12T01:14:16.673Z,10.33
2018-06-12T01:16:48.447Z,10.50
2018-06-12T01:19:19.240Z,11.03
2018-06-12T01:21:50.036Z,10.77
2018-06-12T01:24:21.040Z,10.77
2018-06-12T01:26:51.769Z,10.97
2018-06-12T01:29:22.963Z,11.10
2018-06-12T01:31:54.885Z,10.60
2018-06-12T01:34:25.740Z,10.40
2018-06-12T01:36:56.471Z,11.13
2018-06-12T01:39:27.215Z,10.73
2018-06-12T01:41:57.955Z,10.47
2018-06-12T01:44:28.779Z,10.13
2018-06-12T01:46:59.565Z,11.70
2018-06-12T01:49:29.894Z,11.57
2018-06-12T01:52:00.556Z,10.97
2018-06-12T01:54:31.329Z,10.50
2018-06-12T01:57:02.743Z,10.80
2018-06-12T01:59:33.564Z,10.70
2018-06-12T02:02:04.699Z,11.10
2018-06-12T02:04:35.465Z,11.43
2018-06-12T02:07:06.186Z,11.00
2018-06-12T02:09:37.050Z,10.57
2018-06-12T02:12:07.888Z,11.10
2018-06-12T02:14:38.612Z,11.10
2018-06-12T02:17:10.035Z,10.47
2018-06-12T02:19:40.353Z,10.63
2018-06-12T02:22:11.009Z,10.77
2018-06-12T02:24:41.964Z,10.00
2018-06-12T02:27:30.600Z,10.03
2018-06-12T02:30:01.374Z,11.00
2018-06-12T02:32:32.254Z,10.47
2018-06-12T02:35:02.996Z,10.30
2018-06-12T02:37:33.759Z,11.00
2018-06-12T02:40:04.580Z,10.43
2018-06-12T02:42:35.322Z,11.37
2018-06-12T02:45:07.423Z,10.10
2018-06-12T02:47:37.751Z,10.90
2018-06-12T02:50:08.487Z,10.17
2018-06-12T02:52:39.231Z,10.80
2018-06-12T02:55:09.921Z,10.77
2018-06-12T02:57:40.751Z,10.40
2018-06-12T03:00:11.553Z,10.80
2018-06-12T03:02:42.277Z,10.90
2018-06-12T03:05:13.100Z,10.73
2018-06-12T03:07:43.974Z,10.77
2018-06-12T03:10:14.775Z,11.27
2018-06-12T03:12:45.571Z,11.37
2018-06-12T03:15:16.431Z,11.43
2018-06-12T03:17:47.194Z,11.83
2018-06-12T03:20:18.092Z,10.80
2018-06-12T03:22:48.391Z,10.80
2018-06-12T03:25:19.188Z,11.73
2018-06-12T03:27:55.532Z,11.50
2018-06-12T03:30:26.276Z,10.53
2018-06-12T03:32:56.921Z,10.83
2018-06-12T03:35:27.622Z,10.93
2018-06-12T03:37:58.313Z,11.13
2018-06-12T03:40:29.101Z,10.67
2018-06-12T03:42:59.727Z,10.57
2018-06-12T03:45:30.378Z,10.17
2018-06-12T03:48:01.091Z,10.37
2018-06-12T03:50:31.802Z,10.70
2018-06-12T03:53:02.464Z,12.40
2018-06-12T03:55:33.392Z,13.37
2018-06-12T03:58:04.684Z,13.13
2018-06-12T04:00:35.627Z,14.23
2018-06-12T04:03:06.524Z,11.17
2018-06-12T04:05:37.463Z,11.27
2018-06-12T04:08:08.217Z,13.30
2018-06-12T04:10:39.037Z,12.77
2018-06-12T04:13:09.712Z,14.77
2018-06-12T04:15:40.497Z,13.23
2018-06-12T04:18:11.283Z,12.70
2018-06-12T04:20:42.072Z,14.97
2018-06-12T04:23:12.846Z,14.47
2018-06-12T04:25:43.956Z,14.43
2018-06-12T04:28:14.695Z,17.27
2018-06-12T04:30:45.563Z,15.63
2018-06-12T04:33:16.346Z,14.50
2018-06-12T04:35:47.183Z,13.53
2018-06-12T04:38:17.945Z,14.63
2018-06-12T04:40:51.450Z,15.03
2018-06-12T04:43:22.158Z,15.43
2018-06-12T04:45:53.008Z,18.00
2018-06-12T04:48:23.789Z,15.60
2018-06-12T04:50:54.450Z,17.47
2018-06-12T04:53:25.069Z,15.83
2018-06-12T04:55:55.728Z,15.63
2018-06-12T04:58:26.422Z,17.07
2018-06-12T05:00:56.770Z,12.87
2018-06-12T05:03:28.527Z,13.60
2018-06-12T05:05:59.198Z,13.07
2018-06-12T05:08:29.841Z,12.43
2018-06-12T05:11:00.672Z,13.37
2018-06-12T05:13:31.332Z,13.30
2018-06-12T05:16:01.581Z,13.00
2018-06-12T05:18:32.140Z,13.63
2018-06-12T05:21:02.873Z,12.40
2018-06-12T05:23:33.645Z,11.90
2018-06-12T05:26:04.712Z,12.57
2018-06-12T05:28:35.353Z,13.53
2018-06-12T05:31:06.098Z,13.23
2018-06-12T05:33:36.786Z,12.70
2018-06-12T05:36:07.447Z,11.27
2018-06-12T05:38:38.268Z,11.70
2018-06-12T05:41:08.914Z,12.37
2018-06-12T05:43:39.582Z,12.00
2018-06-12T05:46:10.332Z,12.17
2018-06-12T05:48:41.080Z,11.87
2018-06-12T05:51:11.815Z,12.00
2018-06-12T05:53:43.198Z,11.30
2018-06-12T05:56:13.896Z,13.40
2018-06-12T05:58:44.594Z,12.17
2018-06-12T06:01:15.361Z,12.80
2018-06-12T06:03:46.030Z,11.87
2018-06-12T06:06:16.726Z,11.40
2018-06-12T06:08:47.464Z,11.87
2018-06-12T06:11:18.302Z,11.37
2018-06-12T06:13:49.065Z,11.93
2018-06-12T06:16:19.933Z,12.70
2018-06-12T06:18:50.674Z,12.63
2018-06-12T06:21:21.371Z,11.23
2018-06-12T06:23:52.257Z,11.73
2018-06-12T06:26:23.587Z,11.40
2018-06-12T06:28:56.008Z,11.50
2018-06-12T06:31:26.432Z,11.63
2018-06-12T06:33:57.188Z,12.00
2018-06-12T06:36:27.989Z,11.30
2018-06-12T06:38:58.652Z,11.17
2018-06-12T06:41:31.541Z,11.53
2018-06-12T06:44:03.022Z,11.07
2018-06-12T06:46:37.937Z,11.43
2018-06-12T06:49:08.876Z,10.90
2018-06-12T06:51:39.643Z,10.90
2018-06-12T06:54:10.275Z,10.63
2018-06-12T06:56:41.212Z,10.63
2018-06-12T06:59:12.087Z,11.13
2018-06-12T07:01:42.867Z,10.37
2018-06-12T07:04:13.686Z,10.33
2018-06-12T07:06:44.600Z,10.30
2018-06-12T07:09:15.480Z,9.47
2018-06-12T07:11:46.298Z,9.57
2018-06-12T07:14:17.024Z,9.07
2018-06-12T07:16:47.887Z,8.83
2018-06-12T07:19:18.736Z,9.60
2018-06-12T07:21:49.574Z,9.43
2018-06-12T07:24:20.272Z,9.10
2018-06-12T07:26:51.328Z,9.43
2018-06-12T07:29:22.130Z,9.07
2018-06-12T07:31:52.966Z,9.13
2018-06-12T07:34:23.775Z,9.57
2018-06-12T07:36:54.587Z,9.10
2018-06-12T07:39:25.391Z,9.07
2018-06-12T07:41:56.185Z,9.50
2018-06-12T07:44:26.629Z,9.20
2018-06-12T07:46:57.431Z,10.03
2018-06-12T07:49:28.451Z,9.83
2018-06-12T07:51:59.282Z,9.67
2018-06-12T07:54:30.271Z,9.40
2018-06-12T07:57:00.693Z,10.00
2018-06-12T07:59:31.193Z,10.20
2018-06-12T08:02:01.869Z,10.73
2018-06-12T08:04:32.625Z,10.03
2018-06-12T08:07:03.536Z,9.97
2018-06-12T08:09:34.273Z,9.60
2018-06-12T08:12:05.062Z,11.23
2018-06-12T08:14:36.009Z,10.00
2018-06-12T08:17:06.943Z,10.57
2018-06-12T08:19:37.746Z,12.00
2018-06-12T08:22:08.946Z,11.67
2018-06-12T08:24:39.868Z,10.97
2018-06-12T08:27:10.560Z,10.67
2018-06-12T08:29:41.254Z,9.37
2018-06-12T08:32:12.136Z,9.83
2018-06-12T08:34:42.779Z,9.87
2018-06-12T08:37:13.480Z,9.70
2018-06-12T08:39:44.259Z,10.07
2018-06-12T08:42:15.428Z,9.30
2018-06-12T08:44:45.736Z,7.83
2018-06-12T08:47:16.410Z,8.90
2018-06-12T08:49:47.265Z,8.77
2018-06-12T08:52:18.165Z,9.00
2018-06-12T08:54:49.132Z,7.93
2018-06-12T08:57:19.991Z,8.57
2018-06-12T08:59:51.025Z,8.10
2018-06-12T09:02:21.871Z,7.20
2018-06-12T09:04:52.647Z,6.83
2018-06-12T09:07:23.066Z,6.67
2018-06-12T09:09:53.263Z,6.37
2018-06-12T09:12:23.995Z,6.50
2018-06-12T09:14:54.692Z,6.53
2018-06-12T09:17:25.496Z,6.17
2018-06-12T09:19:57.431Z,5.80
2018-06-12T09:22:28.447Z,6.30
2018-06-12T09:24:59.133Z,5.53
2018-06-12T09:27:33.986Z,5.67
2018-06-12T09:30:04.780Z,5.50
2018-06-12T09:32:35.566Z,5.83
2018-06-12T09:35:06.630Z,5.50
2018-06-12T09:37:37.255Z,5.50
2018-06-12T09:40:07.875Z,5.13
2018-06-12T09:42:38.549Z,5.80
2018-06-12T09:45:09.153Z,4.73
2018-06-12T09:47:39.765Z,4.80
2018-06-12T09:50:10.386Z,4.97
2018-06-12T09:52:41.120Z,4.50
2018-06-12T09:55:11.821Z,4.57
2018-06-12T09:57:42.468Z,4.43
2018-06-12T10:00:13.202Z,4.40
2018-06-12T10:02:43.875Z,4.27
2018-06-12T10:05:14.541Z,4.07
2018-06-12T10:07:44.773Z,4.10
2018-06-12T10:10:15.473Z,4.47
2018-06-12T10:12:46.085Z,4.83
2018-06-12T10:15:16.740Z,3.70
2018-06-12T10:17:47.353Z,3.90
2018-06-12T10:20:17.997Z,3.73
2018-06-12T10:22:48.583Z,3.63
2018-06-12T10:25:19.172Z,3.90
2018-06-12T10:27:50.254Z,3.90
2018-06-12T10:30:20.956Z,3.90
2018-06-12T10:32:51.158Z,3.67
2018-06-12T10:35:21.659Z,3.47
2018-06-12T10:37:52.318Z,4.23
2018-06-12T10:40:22.900Z,4.03
2018-06-12T10:42:53.555Z,4.10
2018-06-12T10:45:24.043Z,3.60
2018-06-12T10:47:54.628Z,3.80
2018-06-12T10:50:25.225Z,4.63
2018-06-12T10:52:55.825Z,3.57
2018-06-12T10:55:26.422Z,3.77
2018-06-12T10:57:57.123Z,3.47
2018-06-12T11:00:27.792Z,3.30
2018-06-12T11:02:58.468Z,2.93
2018-06-12T11:05:29.063Z,3.27
2018-06-12T11:07:59.633Z,2.87
2018-06-12T11:10:30.249Z,3.23
2018-06-12T11:13:00.986Z,3.00
2018-06-12T11:15:31.650Z,2.67
2018-06-12T11:18:02.296Z,3.20
2018-06-12T11:20:33.145Z,3.20
2018-06-12T11:23:03.836Z,3.20
2018-06-12T11:25:34.505Z,3.10
2018-06-12T11:28:05.741Z,3.20
2018-06-12T11:30:36.402Z,3.60
2018-06-12T11:33:06.601Z,3.10
2018-06-12T11:35:37.208Z,3.60
2018-06-12T11:38:08.644Z,2.70
2018-06-12T11:40:40.333Z,3.00
2018-06-12T11:43:10.894Z,2.83
2018-06-12T11:45:41.164Z,3.00
2018-06-12T11:48:11.804Z,3.10
2018-06-12T11:50:42.366Z,3.57
2018-06-12T11:53:13.158Z,3.37
2018-06-12T11:55:43.869Z,6.37
2018-06-12T11:58:14.505Z,3.40
2018-06-12T12:00:45.649Z,4.57
2018-06-12T12:03:16.361Z,2.90
2018-06-12T12:05:46.638Z,2.70
2018-06-12T12:08:17.188Z,2.37
2018-06-12T12:10:47.874Z,2.70
2018-06-12T12:13:18.654Z,2.20
2018-06-12T12:15:49.329Z,2.50
2018-06-12T12:18:19.977Z,2.90
2018-06-12T12:20:50.748Z,2.30
2018-06-12T12:23:21.453Z,2.80
2018-06-12T12:25:52.694Z,2.33
2018-06-12T12:28:23.546Z,2.60
2018-06-12T12:30:54.189Z,2.40
2018-06-12T12:33:25.009Z,2.77
2018-06-12T12:35:55.696Z,2.67
2018-06-12T12:38:25.883Z,2.37
2018-06-12T12:40:56.471Z,2.43
2018-06-12T12:43:27.217Z,2.30
2018-06-12T12:45:57.916Z,2.40
2018-06-12T12:48:28.683Z,2.03
2018-06-12T12:50:59.385Z,2.30
2018-06-12T12:53:30.200Z,2.27
2018-06-12T12:56:00.835Z,2.60
2018-06-12T12:58:31.646Z,2.40
2018-06-12T13:01:02.421Z,2.13
2018-06-12T13:03:33.161Z,2.27
2018-06-12T13:06:03.932Z,2.77
2018-06-12T13:08:34.663Z,2.50
2018-06-12T13:11:05.432Z,2.20
2018-06-12T13:13:36.163Z,2.37
2018-06-12T13:16:07.053Z,2.37
2018-06-12T13:18:38.904Z,1.90
2018-06-12T13:21:09.636Z,4.70
2018-06-12T13:23:40.376Z,5.53
2018-06-12T13:26:11.715Z,2.60
2018-06-12T13:29:00.636Z,2.53
2018-06-12T13:34:31.294Z,1.90
2018-06-12T13:37:01.968Z,2.10
2018-06-12T13:39:32.769Z,2.63
2018-06-12T13:42:03.449Z,2.37
2018-06-12T13:44:34.211Z,2.40
2018-06-12T13:47:05.026Z,2.50
2018-06-12T13:49:36.124Z,3.13
2018-06-12T13:52:06.881Z,2.60
2018-06-12T13:54:37.618Z,1.90
2018-06-12T13:57:08.387Z,1.80
2018-06-12T13:59:39.287Z,1.87
2018-06-12T14:02:09.993Z,1.83
2018-06-12T14:04:40.731Z,2.17
2018-06-12T14:07:11.575Z,2.30
2018-06-12T14:09:42.416Z,2.20
2018-06-12T14:12:13.137Z,2.00
2018-06-12T14:14:43.948Z,1.70
2018-06-12T14:17:14.777Z,3.10
2018-06-12T14:19:45.547Z,1.97
2018-06-12T14:22:16.958Z,5.33
2018-06-12T14:24:47.772Z,2.90
2018-06-12T14:27:18.545Z,2.83
2018-06-12T14:29:49.550Z,3.17
2018-06-12T14:32:20.299Z,3.37
2018-06-12T14:34:51.137Z,3.20
2018-06-12T14:37:21.977Z,2.93
2018-06-12T14:39:52.662Z,3.10
2018-06-12T14:42:23.429Z,2.90
2018-06-12T14:44:54.230Z,3.20
2018-06-12T14:47:25.028Z,2.90
2018-06-12T14:49:55.456Z,3.37
2018-06-12T14:52:26.316Z,3.10
2018-06-12T14:54:57.380Z,3.00
2018-06-12T14:57:28.475Z,2.90
2018-06-12T14:59:59.483Z,3.60
2018-06-12T15:02:30.354Z,3.50
2018-06-12T15:05:01.288Z,2.90
2018-06-12T15:07:33.199Z,3.20
2018-06-12T15:10:04.201Z,3.20
2018-06-12T15:13:38.281Z,3.50
2018-06-12T15:16:29.651Z,3.50
2018-06-12T15:19:08.798Z,2.80
